首页
METAR-TAF:

METAR-TAF

机场 :

新山一國際機場

胡志明, 越南

纬度: 10-49N, 经度: 106-40E, 海拔: 19米

当前天气观测

该预报发布于28分钟前的23:00 UTC
风速3节,风向多变
温度 24°C
湿度 100%
气压 1010 hPa
能見度: 7000
少量云层高于1700英尺

METAR: VVTS 132300Z VRB03KT 7000 FEW017 24/24 Q1010 NOSIG

时间: 06:28 (23:28 UTC)

预报

该预报发布于6小时和28分钟前的17:00 UTC
预报有效从13日的 18点(UTC)到 14日的 24点(UTC)
风速2节,风向多变
能见度10公里或以上
散云层高于1500英尺
成为
从 13日的 21点(UTC)到 13日的 23点(UTC)
能見度: 3000
轻雾
成为
从 14日的 00点(UTC)到 14日的 01点(UTC)
能见度10公里或以上
短暂存在
从 14日的 06点(UTC)到 14日的 10点(UTC)
风速16节,风向,有时为28节阵风
能見度: 1500
多云层高于1300英尺
散云层高于1500英尺, 积雨云.
雷暴, 大雨

TAF: VVTS 131700Z 1318/1424 VRB02KT 9999 SCT015 BECMG 1321/1323 3000 BR BECMG 1400/1401 9999 NSW TEMPO 1406/1410 09016G28KT 1500 +TSRA BKN013 SCT015CB

超过4000个机场的气象观测和天气预报(METAR&TAF报告)。

可查询的气象台以黄色和红色小点在地图上表示。

将鼠标移到小点上方,可查看气象台名称。

然后点击查看天气观测和预报。

如需切换地图:点击带黑十字的绿色按钮放大地图;点击带横线的绿色按钮缩小地图;或者点击绿色箭头查看邻近地区的地图。


METAR-TAF: